sensor_id;sensor_type;location;lat;lon;timestamp;temperature;humidity
290;DHT22;13193;48.874;9.086;2022-09-23T00:01:12;6.70;1.00
290;DHT22;13193;48.874;9.086;2022-09-23T00:03:43;5.50;1.00
290;DHT22;13193;48.874;9.086;2022-09-23T00:06:13;6.10;1.00
290;DHT22;13193;48.874;9.086;2022-09-23T00:08:41;5.50;1.00
290;DHT22;13193;48.874;9.086;2022-09-23T00:11:26;5.50;1.00
290;DHT22;13193;48.874;9.086;2022-09-23T00:13:55;6.10;1.00
290;DHT22;13193;48.874;9.086;2022-09-23T00:16:23;5.40;1.00
290;DHT22;13193;48.874;9.086;2022-09-23T00:18:53;5.90;1.00
290;DHT22;13193;48.874;9.086;2022-09-23T00:21:20;5.80;1.00
290;DHT22;13193;48.874;9.086;2022-09-23T00:23:48;5.40;1.00
290;DHT22;13193;48.874;9.086;2022-09-23T00:26:17;5.30;1.00
290;DHT22;13193;48.874;9.086;2022-09-23T00:28:47;7.10;1.00
290;DHT22;13193;48.874;9.086;2022-09-23T00:31:21;5.30;1.00
290;DHT22;13193;48.874;9.086;2022-09-23T00:33:57;5.60;1.00
290;DHT22;13193;48.874;9.086;2022-09-23T00:36:28;5.30;1.00
290;DHT22;13193;48.874;9.086;2022-09-23T00:38:55;5.30;1.00
290;DHT22;13193;48.874;9.086;2022-09-23T00:41:23;6.60;1.00
290;DHT22;13193;48.874;9.086;2022-09-23T00:43:54;5.30;1.00
290;DHT22;13193;48.874;9.086;2022-09-23T00:46:34;5.30;1.00
290;DHT22;13193;48.874;9.086;2022-09-23T00:49:12;5.30;1.00
290;DHT22;13193;48.874;9.086;2022-09-23T00:51:55;5.30;1.00
290;DHT22;13193;48.874;9.086;2022-09-23T00:54:23;5.20;1.00
290;DHT22;13193;48.874;9.086;2022-09-23T00:56:54;5.20;1.00
290;DHT22;13193;48.874;9.086;2022-09-23T00:59:20;6.00;1.00
290;DHT22;13193;48.874;9.086;2022-09-23T01:01:51;6.20;1.00
290;DHT22;13193;48.874;9.086;2022-09-23T01:04:24;5.40;1.00
290;DHT22;13193;48.874;9.086;2022-09-23T01:07:10;5.20;1.00
290;DHT22;13193;48.874;9.086;2022-09-23T01:09:37;5.30;1.00
290;DHT22;13193;48.874;9.086;2022-09-23T01:18:33;5.10;1.00
290;DHT22;13193;48.874;9.086;2022-09-23T01:21:37;5.10;1.00
290;DHT22;13193;48.874;9.086;2022-09-23T01:38:25;5.00;1.00
290;DHT22;13193;48.874;9.086;2022-09-23T01:47:08;5.00;1.00
290;DHT22;13193;48.874;9.086;2022-09-23T01:49:52;4.90;1.00
290;DHT22;13193;48.874;9.086;2022-09-23T01:52:39;4.90;1.00
290;DHT22;13193;48.874;9.086;2022-09-23T01:55:27;6.00;1.00
290;DHT22;13193;48.874;9.086;2022-09-23T01:58:26;4.80;1.00
290;DHT22;13193;48.874;9.086;2022-09-23T02:01:01;4.80;1.00
290;DHT22;13193;48.874;9.086;2022-09-23T02:03:50;4.80;1.00
290;DHT22;13193;48.874;9.086;2022-09-23T02:06:22;5.10;1.00
290;DHT22;13193;48.874;9.086;2022-09-23T02:08:58;6.20;1.00
290;DHT22;13193;48.874;9.086;2022-09-23T02:11:48;6.10;1.00
290;DHT22;13193;48.874;9.086;2022-09-23T02:14:48;4.70;1.00
290;DHT22;13193;48.874;9.086;2022-09-23T02:17:24;4.80;1.00
290;DHT22;13193;48.874;9.086;2022-09-23T02:19:56;4.80;1.00
290;DHT22;13193;48.874;9.086;2022-09-23T02:22:31;4.80;1.00
290;DHT22;13193;48.874;9.086;2022-09-23T02:25:01;4.80;1.00
290;DHT22;13193;48.874;9.086;2022-09-23T02:27:38;5.40;1.00
290;DHT22;13193;48.874;9.086;2022-09-23T02:30:23;4.80;1.00
290;DHT22;13193;48.874;9.086;2022-09-23T02:33:06;4.70;1.00
290;DHT22;13193;48.874;9.086;2022-09-23T02:35:39;4.70;1.00
290;DHT22;13193;48.874;9.086;2022-09-23T02:38:34;6.00;1.00
290;DHT22;13193;48.874;9.086;2022-09-23T02:41:30;4.70;1.00
290;DHT22;13193;48.874;9.086;2022-09-23T02:44:06;4.70;1.00
290;DHT22;13193;48.874;9.086;2022-09-23T02:46:34;4.70;1.00
290;DHT22;13193;48.874;9.086;2022-09-23T02:49:30;4.70;1.00
290;DHT22;13193;48.874;9.086;2022-09-23T02:51:58;4.70;1.00
290;DHT22;13193;48.874;9.086;2022-09-23T02:54:28;4.70;1.00
290;DHT22;13193;48.874;9.086;2022-09-23T02:56:53;4.70;1.00
290;DHT22;13193;48.874;9.086;2022-09-23T02:59:22;5.70;1.00
290;DHT22;13193;48.874;9.086;2022-09-23T03:02:19;4.70;1.00
290;DHT22;13193;48.874;9.086;2022-09-23T03:10:28;4.80;1.00
290;DHT22;13193;48.874;9.086;2022-09-23T03:19:05;4.60;1.00
290;DHT22;13193;48.874;9.086;2022-09-23T03:21:42;4.50;1.00
290;DHT22;13193;48.874;9.086;2022-09-23T03:24:12;4.50;1.00
290;DHT22;13193;48.874;9.086;2022-09-23T03:26:54;4.50;1.00
290;DHT22;13193;48.874;9.086;2022-09-23T03:29:24;6.10;1.00
290;DHT22;13193;48.874;9.086;2022-09-23T03:31:51;4.50;1.00
290;DHT22;13193;48.874;9.086;2022-09-23T03:34:27;4.50;1.00
290;DHT22;13193;48.874;9.086;2022-09-23T03:37:10;4.50;1.00
290;DHT22;13193;48.874;9.086;2022-09-23T03:40:16;4.40;1.00
290;DHT22;13193;48.874;9.086;2022-09-23T03:42:35;4.40;1.00
290;DHT22;13193;48.874;9.086;2022-09-23T03:45:05;4.80;1.00
290;DHT22;13193;48.874;9.086;2022-09-23T03:47:36;4.40;1.00
290;DHT22;13193;48.874;9.086;2022-09-23T03:50:05;4.30;1.00
290;DHT22;13193;48.874;9.086;2022-09-23T03:52:31;4.30;1.00
290;DHT22;13193;48.874;9.086;2022-09-23T03:54:57;5.80;1.00
290;DHT22;13193;48.874;9.086;2022-09-23T03:57:25;5.80;1.00
290;DHT22;13193;48.874;9.086;2022-09-23T03:59:51;4.20;1.00
290;DHT22;13193;48.874;9.086;2022-09-23T04:02:25;4.70;1.00
290;DHT22;13193;48.874;9.086;2022-09-23T04:04:55;4.20;1.00
290;DHT22;13193;48.874;9.086;2022-09-23T04:07:22;4.20;1.00
290;DHT22;13193;48.874;9.086;2022-09-23T04:09:48;4.20;1.00
290;DHT22;13193;48.874;9.086;2022-09-23T04:12:15;5.90;1.00
290;DHT22;13193;48.874;9.086;2022-09-23T04:14:42;5.70;1.00
290;DHT22;13193;48.874;9.086;2022-09-23T04:17:10;4.40;1.00
290;DHT22;13193;48.874;9.086;2022-09-23T04:19:36;4.20;1.00
290;DHT22;13193;48.874;9.086;2022-09-23T04:22:02;4.20;1.00
290;DHT22;13193;48.874;9.086;2022-09-23T04:24:28;4.20;1.00
290;DHT22;13193;48.874;9.086;2022-09-23T04:26:55;4.20;1.00
290;DHT22;13193;48.874;9.086;2022-09-23T04:29:21;4.10;1.00
290;DHT22;13193;48.874;9.086;2022-09-23T04:31:54;4.20;1.00
290;DHT22;13193;48.874;9.086;2022-09-23T04:34:20;4.20;1.00
290;DHT22;13193;48.874;9.086;2022-09-23T04:36:48;4.10;1.00
290;DHT22;13193;48.874;9.086;2022-09-23T04:39:16;4.10;1.00
290;DHT22;13193;48.874;9.086;2022-09-23T04:41:43;4.30;1.00
290;DHT22;13193;48.874;9.086;2022-09-23T04:44:11;4.80;1.00
290;DHT22;13193;48.874;9.086;2022-09-23T04:46:39;4.10;1.00
290;DHT22;13193;48.874;9.086;2022-09-23T04:49:07;4.00;1.00
290;DHT22;13193;48.874;9.086;2022-09-23T04:51:39;4.10;1.00
290;DHT22;13193;48.874;9.086;2022-09-23T04:54:09;4.10;1.00
290;DHT22;13193;48.874;9.086;2022-09-23T04:56:36;4.10;1.00
290;DHT22;13193;48.874;9.086;2022-09-23T04:59:01;4.50;1.00
290;DHT22;13193;48.874;9.086;2022-09-23T05:01:29;4.00;1.00
290;DHT22;13193;48.874;9.086;2022-09-23T05:03:58;4.10;1.00
290;DHT22;13193;48.874;9.086;2022-09-23T05:06:30;4.10;1.00
290;DHT22;13193;48.874;9.086;2022-09-23T05:08:57;4.10;1.00
290;DHT22;13193;48.874;9.086;2022-09-23T05:11:25;4.10;1.00
290;DHT22;13193;48.874;9.086;2022-09-23T05:13:52;5.20;1.00
290;DHT22;13193;48.874;9.086;2022-09-23T05:16:19;5.00;1.00
290;DHT22;13193;48.874;9.086;2022-09-23T05:18:47;4.20;1.00
290;DHT22;13193;48.874;9.086;2022-09-23T05:21:15;5.00;1.00
290;DHT22;13193;48.874;9.086;2022-09-23T05:23:52;4.60;1.00
290;DHT22;13193;48.874;9.086;2022-09-23T05:26:21;5.80;1.00
290;DHT22;13193;48.874;9.086;2022-09-23T05:28:48;4.40;1.00
290;DHT22;13193;48.874;9.086;2022-09-23T05:31:29;4.40;1.00
290;DHT22;13193;48.874;9.086;2022-09-23T05:33:58;4.50;1.00
290;DHT22;13193;48.874;9.086;2022-09-23T05:36:25;4.70;1.00
290;DHT22;13193;48.874;9.086;2022-09-23T05:38:52;4.60;1.00
290;DHT22;13193;48.874;9.086;2022-09-23T05:41:22;5.60;1.00
290;DHT22;13193;48.874;9.086;2022-09-23T05:43:49;5.20;1.00
290;DHT22;13193;48.874;9.086;2022-09-23T05:46:18;4.80;1.00
290;DHT22;13193;48.874;9.086;2022-09-23T05:48:44;4.90;1.00
290;DHT22;13193;48.874;9.086;2022-09-23T05:51:23;5.20;1.00
290;DHT22;13193;48.874;9.086;2022-09-23T05:53:50;5.20;1.00
290;DHT22;13193;48.874;9.086;2022-09-23T05:56:23;5.20;1.00
290;DHT22;13193;48.874;9.086;2022-09-23T05:58:53;7.10;1.00
290;DHT22;13193;48.874;9.086;2022-09-23T06:01:21;5.50;1.00
290;DHT22;13193;48.874;9.086;2022-09-23T06:03:53;6.20;1.00
290;DHT22;13193;48.874;9.086;2022-09-23T06:06:32;5.70;1.00
290;DHT22;13193;48.874;9.086;2022-09-23T06:09:02;5.80;1.00
290;DHT22;13193;48.874;9.086;2022-09-23T06:11:33;6.20;1.00
290;DHT22;13193;48.874;9.086;2022-09-23T06:14:00;7.40;1.00
290;DHT22;13193;48.874;9.086;2022-09-23T06:16:29;6.70;1.00
290;DHT22;13193;48.874;9.086;2022-09-23T06:18:55;6.90;1.00
290;DHT22;13193;48.874;9.086;2022-09-23T06:21:23;7.30;1.00
290;DHT22;13193;48.874;9.086;2022-09-23T06:23:49;6.70;1.00
290;DHT22;13193;48.874;9.086;2022-09-23T06:26:15;6.90;1.00
290;DHT22;13193;48.874;9.086;2022-09-23T06:28:43;8.10;1.00
290;DHT22;13193;48.874;9.086;2022-09-23T06:31:15;8.90;1.00
290;DHT22;13193;48.874;9.086;2022-09-23T06:33:44;8.10;1.00
290;DHT22;13193;48.874;9.086;2022-09-23T06:36:11;7.50;1.00
290;DHT22;13193;48.874;9.086;2022-09-23T06:38:39;9.30;1.00
290;DHT22;13193;48.874;9.086;2022-09-23T06:41:05;7.80;1.00
290;DHT22;13193;48.874;9.086;2022-09-23T06:43:33;8.00;1.00
290;DHT22;13193;48.874;9.086;2022-09-23T06:46:00;8.40;1.00
290;DHT22;13193;48.874;9.086;2022-09-23T06:48:32;8.30;1.00
290;DHT22;13193;48.874;9.086;2022-09-23T06:51:03;9.90;1.00
290;DHT22;13193;48.874;9.086;2022-09-23T06:53:30;8.60;1.00
290;DHT22;13193;48.874;9.086;2022-09-23T06:56:06;8.80;1.00
290;DHT22;13193;48.874;9.086;2022-09-23T06:58:35;9.00;1.00
290;DHT22;13193;48.874;9.086;2022-09-23T07:01:14;9.20;1.00
290;DHT22;13193;48.874;9.086;2022-09-23T07:03:40;9.50;1.00
290;DHT22;13193;48.874;9.086;2022-09-23T07:06:09;11.30;1.00
290;DHT22;13193;48.874;9.086;2022-09-23T07:08:36;11.10;1.00
290;DHT22;13193;48.874;9.086;2022-09-23T07:11:05;10.20;1.00
290;DHT22;13193;48.874;9.086;2022-09-23T07:13:32;10.50;1.00
290;DHT22;13193;48.874;9.086;2022-09-23T07:15:58;10.70;1.00
290;DHT22;13193;48.874;9.086;2022-09-23T07:18:31;11.00;1.00
290;DHT22;13193;48.874;9.086;2022-09-23T07:21:05;11.30;1.00
290;DHT22;13193;48.874;9.086;2022-09-23T07:23:32;11.50;1.00
290;DHT22;13193;48.874;9.086;2022-09-23T07:25:58;11.80;1.00
290;DHT22;13193;48.874;9.086;2022-09-23T07:28:24;12.00;1.00
290;DHT22;13193;48.874;9.086;2022-09-23T07:30:52;12.20;1.00
290;DHT22;13193;48.874;9.086;2022-09-23T07:33:18;12.50;1.00
290;DHT22;13193;48.874;9.086;2022-09-23T07:35:45;12.80;1.00
290;DHT22;13193;48.874;9.086;2022-09-23T07:38:11;13.10;1.00
290;DHT22;13193;48.874;9.086;2022-09-23T07:40:37;13.30;1.00
290;DHT22;13193;48.874;9.086;2022-09-23T07:43:05;13.50;1.00
290;DHT22;13193;48.874;9.086;2022-09-23T07:45:33;13.70;1.00
290;DHT22;13193;48.874;9.086;2022-09-23T07:47:59;13.90;1.00
290;DHT22;13193;48.874;9.086;2022-09-23T07:50:25;14.10;1.00
290;DHT22;13193;48.874;9.086;2022-09-23T07:52:51;14.30;1.00
290;DHT22;13193;48.874;9.086;2022-09-23T07:55:18;15.20;1.00
290;DHT22;13193;48.874;9.086;2022-09-23T07:57:44;14.60;1.00
290;DHT22;13193;48.874;9.086;2022-09-23T08:00:11;14.70;1.00
290;DHT22;13193;48.874;9.086;2022-09-23T08:02:38;14.90;1.00
290;DHT22;13193;48.874;9.086;2022-09-23T08:05:04;15.10;1.00
290;DHT22;13193;48.874;9.086;2022-09-23T08:07:30;15.20;1.00
290;DHT22;13193;48.874;9.086;2022-09-23T08:09:59;15.30;1.00
290;DHT22;13193;48.874;9.086;2022-09-23T08:12:25;15.40;1.00
290;DHT22;13193;48.874;9.086;2022-09-23T08:14:56;15.50;1.00
290;DHT22;13193;48.874;9.086;2022-09-23T08:17:25;15.60;1.00
290;DHT22;13193;48.874;9.086;2022-09-23T08:19:51;15.70;1.00
290;DHT22;13193;48.874;9.086;2022-09-23T08:22:22;15.80;1.00
290;DHT22;13193;48.874;9.086;2022-09-23T08:24:48;15.90;1.00
290;DHT22;13193;48.874;9.086;2022-09-23T08:27:15;15.90;1.00
290;DHT22;13193;48.874;9.086;2022-09-23T08:29:42;16.00;1.00
290;DHT22;13193;48.874;9.086;2022-09-23T08:32:08;16.00;1.00
290;DHT22;13193;48.874;9.086;2022-09-23T08:34:34;16.10;1.00
290;DHT22;13193;48.874;9.086;2022-09-23T08:37:00;16.10;1.00
290;DHT22;13193;48.874;9.086;2022-09-23T08:39:26;16.10;1.00
290;DHT22;13193;48.874;9.086;2022-09-23T08:44:50;16.20;1.00
290;DHT22;13193;48.874;9.086;2022-09-23T08:50:46;16.30;1.00
290;DHT22;13193;48.874;9.086;2022-09-23T08:53:22;16.10;1.00
290;DHT22;13193;48.874;9.086;2022-09-23T08:55:53;16.50;1.00
290;DHT22;13193;48.874;9.086;2022-09-23T08:58:52;16.50;1.00
290;DHT22;13193;48.874;9.086;2022-09-23T09:04:26;16.50;1.00
290;DHT22;13193;48.874;9.086;2022-09-23T09:07:01;16.50;1.00
290;DHT22;13193;48.874;9.086;2022-09-23T09:09:46;16.40;1.00
290;DHT22;13193;48.874;9.086;2022-09-23T09:18:06;16.40;1.00
290;DHT22;13193;48.874;9.086;2022-09-23T09:20:54;16.30;1.00
290;DHT22;13193;48.874;9.086;2022-09-23T09:23:22;16.40;1.00
290;DHT22;13193;48.874;9.086;2022-09-23T09:25:53;16.40;1.00
290;DHT22;13193;48.874;9.086;2022-09-23T09:28:34;16.40;1.00
290;DHT22;13193;48.874;9.086;2022-09-23T09:33:54;16.50;1.00
290;DHT22;13193;48.874;9.086;2022-09-23T09:39:12;16.60;1.00
290;DHT22;13193;48.874;9.086;2022-09-23T09:41:40;16.60;1.00
290;DHT22;13193;48.874;9.086;2022-09-23T09:44:21;16.60;1.00
290;DHT22;13193;48.874;9.086;2022-09-23T09:52:11;16.50;1.00
290;DHT22;13193;48.874;9.086;2022-09-23T09:54:37;16.50;1.00
290;DHT22;13193;48.874;9.086;2022-09-23T09:57:05;16.40;1.00
290;DHT22;13193;48.874;9.086;2022-09-23T09:59:33;16.50;1.00
290;DHT22;13193;48.874;9.086;2022-09-23T10:02:26;16.50;1.00
290;DHT22;13193;48.874;9.086;2022-09-23T10:05:04;16.50;1.00
290;DHT22;13193;48.874;9.086;2022-09-23T10:07:32;16.60;1.00
290;DHT22;13193;48.874;9.086;2022-09-23T10:10:17;16.70;1.00
290;DHT22;13193;48.874;9.086;2022-09-23T10:12:45;16.70;1.00
290;DHT22;13193;48.874;9.086;2022-09-23T10:15:31;16.80;1.00
290;DHT22;13193;48.874;9.086;2022-09-23T10:18:21;16.80;1.00
290;DHT22;13193;48.874;9.086;2022-09-23T10:20:49;16.90;1.00
290;DHT22;13193;48.874;9.086;2022-09-23T10:23:17;16.90;1.00
290;DHT22;13193;48.874;9.086;2022-09-23T10:26:05;17.00;1.00
290;DHT22;13193;48.874;9.086;2022-09-23T10:31:13;17.10;1.00
290;DHT22;13193;48.874;9.086;2022-09-23T10:33:48;17.10;1.00
290;DHT22;13193;48.874;9.086;2022-09-23T10:36:15;17.10;1.00
290;DHT22;13193;48.874;9.086;2022-09-23T10:38:42;17.10;1.00
290;DHT22;13193;48.874;9.086;2022-09-23T10:41:32;17.20;1.00
290;DHT22;13193;48.874;9.086;2022-09-23T10:44:35;17.40;1.00
290;DHT22;13193;48.874;9.086;2022-09-23T10:47:42;17.30;1.00
290;DHT22;13193;48.874;9.086;2022-09-23T10:50:34;17.40;1.00
290;DHT22;13193;48.874;9.086;2022-09-23T10:59:07;17.40;1.00
290;DHT22;13193;48.874;9.086;2022-09-23T11:02:23;17.50;1.00
290;DHT22;13193;48.874;9.086;2022-09-23T11:34:04;17.90;1.00
290;DHT22;13193;48.874;9.086;2022-09-23T11:36:43;17.90;1.00
290;DHT22;13193;48.874;9.086;2022-09-23T11:39:18;17.90;1.00
290;DHT22;13193;48.874;9.086;2022-09-23T11:41:45;17.90;1.00
290;DHT22;13193;48.874;9.086;2022-09-23T11:44:17;18.00;1.00
290;DHT22;13193;48.874;9.086;2022-09-23T11:47:20;18.10;1.00
290;DHT22;13193;48.874;9.086;2022-09-23T11:50:14;18.10;1.00
290;DHT22;13193;48.874;9.086;2022-09-23T11:52:49;18.20;1.00
290;DHT22;13193;48.874;9.086;2022-09-23T11:55:23;18.30;1.00
290;DHT22;13193;48.874;9.086;2022-09-23T11:57:58;18.30;1.00
290;DHT22;13193;48.874;9.086;2022-09-23T12:00:30;18.30;1.00
290;DHT22;13193;48.874;9.086;2022-09-23T12:05:58;18.40;1.00
290;DHT22;13193;48.874;9.086;2022-09-23T12:08:35;17.90;1.00
290;DHT22;13193;48.874;9.086;2022-09-23T12:11:14;18.50;1.00
290;DHT22;13193;48.874;9.086;2022-09-23T12:14:12;18.50;1.00
290;DHT22;13193;48.874;9.086;2022-09-23T12:27:40;18.70;1.00
290;DHT22;13193;48.874;9.086;2022-09-23T12:30:17;18.70;1.00
290;DHT22;13193;48.874;9.086;2022-09-23T12:32:43;18.80;1.00
290;DHT22;13193;48.874;9.086;2022-09-23T12:35:34;18.80;1.00
290;DHT22;13193;48.874;9.086;2022-09-23T12:38:11;18.90;1.00
290;DHT22;13193;48.874;9.086;2022-09-23T12:40:37;18.90;1.00
290;DHT22;13193;48.874;9.086;2022-09-23T12:43:17;18.90;1.00
290;DHT22;13193;48.874;9.086;2022-09-23T12:45:44;19.00;1.00
290;DHT22;13193;48.874;9.086;2022-09-23T12:51:23;19.00;1.00
290;DHT22;13193;48.874;9.086;2022-09-23T12:53:53;19.10;1.00
290;DHT22;13193;48.874;9.086;2022-09-23T12:59:10;19.10;1.00
290;DHT22;13193;48.874;9.086;2022-09-23T13:01:43;19.20;1.00
290;DHT22;13193;48.874;9.086;2022-09-23T13:04:32;19.20;1.00
290;DHT22;13193;48.874;9.086;2022-09-23T13:07:24;19.30;1.00
290;DHT22;13193;48.874;9.086;2022-09-23T13:09:54;19.30;1.00
290;DHT22;13193;48.874;9.086;2022-09-23T13:12:31;19.30;1.00
290;DHT22;13193;48.874;9.086;2022-09-23T13:15:02;19.30;1.00
290;DHT22;13193;48.874;9.086;2022-09-23T13:17:31;19.30;1.00
290;DHT22;13193;48.874;9.086;2022-09-23T13:20:00;19.40;1.00
290;DHT22;13193;48.874;9.086;2022-09-23T13:23:26;19.50;1.00
290;DHT22;13193;48.874;9.086;2022-09-23T13:25:31;19.50;1.00
290;DHT22;13193;48.874;9.086;2022-09-23T13:28:02;19.60;1.00
290;DHT22;13193;48.874;9.086;2022-09-23T13:30:47;19.70;1.00
290;DHT22;13193;48.874;9.086;2022-09-23T13:33:33;19.80;1.00
290;DHT22;13193;48.874;9.086;2022-09-23T13:36:01;19.80;1.00
290;DHT22;13193;48.874;9.086;2022-09-23T13:38:29;19.90;1.00
290;DHT22;13193;48.874;9.086;2022-09-23T13:41:02;19.90;1.00
290;DHT22;13193;48.874;9.086;2022-09-23T13:43:35;20.00;1.00
290;DHT22;13193;48.874;9.086;2022-09-23T13:46:09;20.00;1.00
290;DHT22;13193;48.874;9.086;2022-09-23T13:48:38;20.10;1.00
290;DHT22;13193;48.874;9.086;2022-09-23T13:51:09;20.20;1.00
290;DHT22;13193;48.874;9.086;2022-09-23T13:53:37;20.30;1.00
290;DHT22;13193;48.874;9.086;2022-09-23T13:56:14;20.40;1.00
290;DHT22;13193;48.874;9.086;2022-09-23T13:58:40;20.50;1.00
290;DHT22;13193;48.874;9.086;2022-09-23T14:01:19;20.60;1.00
290;DHT22;13193;48.874;9.086;2022-09-23T14:03:45;20.60;1.00
290;DHT22;13193;48.874;9.086;2022-09-23T14:06:12;20.60;1.00
290;DHT22;13193;48.874;9.086;2022-09-23T14:08:47;20.60;1.00
290;DHT22;13193;48.874;9.086;2022-09-23T14:11:19;20.40;1.00
290;DHT22;13193;48.874;9.086;2022-09-23T14:13:48;20.70;1.00
290;DHT22;13193;48.874;9.086;2022-09-23T14:16:16;20.80;1.00
290;DHT22;13193;48.874;9.086;2022-09-23T14:18:45;20.80;1.00
290;DHT22;13193;48.874;9.086;2022-09-23T14:24:14;20.80;1.00
290;DHT22;13193;48.874;9.086;2022-09-23T14:26:41;20.90;1.00
290;DHT22;13193;48.874;9.086;2022-09-23T14:29:19;20.90;1.00
290;DHT22;13193;48.874;9.086;2022-09-23T14:31:55;20.90;1.00
290;DHT22;13193;48.874;9.086;2022-09-23T14:37:37;21.00;1.00
290;DHT22;13193;48.874;9.086;2022-09-23T14:40:32;21.00;1.00
290;DHT22;13193;48.874;9.086;2022-09-23T14:43:31;21.00;1.00
290;DHT22;13193;48.874;9.086;2022-09-23T14:45:57;21.00;1.00
290;DHT22;13193;48.874;9.086;2022-09-23T14:48:23;20.90;1.00
290;DHT22;13193;48.874;9.086;2022-09-23T14:50:58;20.90;1.00
290;DHT22;13193;48.874;9.086;2022-09-23T14:58:43;20.70;1.00
290;DHT22;13193;48.874;9.086;2022-09-23T15:03:59;20.60;1.00
290;DHT22;13193;48.874;9.086;2022-09-23T15:06:25;20.50;1.00
290;DHT22;13193;48.874;9.086;2022-09-23T15:08:53;20.40;1.00
290;DHT22;13193;48.874;9.086;2022-09-23T15:11:21;20.40;1.00
290;DHT22;13193;48.874;9.086;2022-09-23T15:13:51;20.30;1.00
290;DHT22;13193;48.874;9.086;2022-09-23T15:16:26;20.20;1.00
290;DHT22;13193;48.874;9.086;2022-09-23T15:18:56;20.10;1.00
290;DHT22;13193;48.874;9.086;2022-09-23T15:21:23;20.10;1.00
290;DHT22;13193;48.874;9.086;2022-09-23T15:23:53;20.00;1.00
290;DHT22;13193;48.874;9.086;2022-09-23T15:29:10;19.90;1.00
290;DHT22;13193;48.874;9.086;2022-09-23T15:31:35;19.90;1.00
290;DHT22;13193;48.874;9.086;2022-09-23T15:34:03;19.80;1.00
290;DHT22;13193;48.874;9.086;2022-09-23T15:36:35;19.80;1.00
290;DHT22;13193;48.874;9.086;2022-09-23T15:39:05;19.70;1.00
290;DHT22;13193;48.874;9.086;2022-09-23T15:41:33;19.70;1.00
290;DHT22;13193;48.874;9.086;2022-09-23T15:44:06;19.60;1.00
290;DHT22;13193;48.874;9.086;2022-09-23T15:46:36;19.50;1.00
290;DHT22;13193;48.874;9.086;2022-09-23T15:49:08;19.50;1.00
290;DHT22;13193;48.874;9.086;2022-09-23T15:51:39;20.10;1.00
290;DHT22;13193;48.874;9.086;2022-09-23T15:54:12;19.40;1.00
290;DHT22;13193;48.874;9.086;2022-09-23T15:56:38;19.40;1.00
290;DHT22;13193;48.874;9.086;2022-09-23T15:59:04;19.30;1.00
290;DHT22;13193;48.874;9.086;2022-09-23T16:01:32;19.20;1.00
290;DHT22;13193;48.874;9.086;2022-09-23T16:04:04;19.10;1.00
290;DHT22;13193;48.874;9.086;2022-09-23T16:06:30;19.10;1.00
290;DHT22;13193;48.874;9.086;2022-09-23T16:08:58;19.00;1.00
290;DHT22;13193;48.874;9.086;2022-09-23T16:11:29;18.60;1.00
290;DHT22;13193;48.874;9.086;2022-09-23T16:13:57;18.80;1.00
290;DHT22;13193;48.874;9.086;2022-09-23T16:16:24;18.80;1.00
290;DHT22;13193;48.874;9.086;2022-09-23T16:18:52;18.70;1.00
290;DHT22;13193;48.874;9.086;2022-09-23T16:21:22;18.60;1.00
290;DHT22;13193;48.874;9.086;2022-09-23T16:23:49;18.50;1.00
290;DHT22;13193;48.874;9.086;2022-09-23T16:26:18;18.40;1.00
290;DHT22;13193;48.874;9.086;2022-09-23T16:28:46;18.40;1.00
290;DHT22;13193;48.874;9.086;2022-09-23T16:31:12;18.30;1.00
290;DHT22;13193;48.874;9.086;2022-09-23T16:33:43;18.30;1.00
290;DHT22;13193;48.874;9.086;2022-09-23T16:38:50;18.10;1.00
290;DHT22;13193;48.874;9.086;2022-09-23T16:41:16;18.00;1.00
290;DHT22;13193;48.874;9.086;2022-09-23T16:43:41;18.00;1.00
290;DHT22;13193;48.874;9.086;2022-09-23T16:46:11;17.90;1.00
290;DHT22;13193;48.874;9.086;2022-09-23T16:48:38;17.80;1.00
290;DHT22;13193;48.874;9.086;2022-09-23T16:51:05;17.60;1.00
290;DHT22;13193;48.874;9.086;2022-09-23T16:53:31;17.50;1.00
290;DHT22;13193;48.874;9.086;2022-09-23T16:56:03;17.50;1.00
290;DHT22;13193;48.874;9.086;2022-09-23T16:58:32;17.40;1.00
290;DHT22;13193;48.874;9.086;2022-09-23T17:00:58;18.40;1.00
290;DHT22;13193;48.874;9.086;2022-09-23T17:03:42;17.20;1.00
290;DHT22;13193;48.874;9.086;2022-09-23T17:06:11;17.10;1.00
290;DHT22;13193;48.874;9.086;2022-09-23T17:08:42;16.90;1.00
290;DHT22;13193;48.874;9.086;2022-09-23T17:11:10;16.80;1.00
290;DHT22;13193;48.874;9.086;2022-09-23T17:13:36;16.70;1.00
290;DHT22;13193;48.874;9.086;2022-09-23T17:16:01;16.50;1.00
290;DHT22;13193;48.874;9.086;2022-09-23T17:18:28;16.40;1.00
290;DHT22;13193;48.874;9.086;2022-09-23T17:21:05;16.30;1.00
290;DHT22;13193;48.874;9.086;2022-09-23T17:23:35;16.10;1.00
290;DHT22;13193;48.874;9.086;2022-09-23T17:26:01;16.00;1.00
290;DHT22;13193;48.874;9.086;2022-09-23T17:28:27;15.90;1.00
290;DHT22;13193;48.874;9.086;2022-09-23T17:30:57;15.70;1.00
290;DHT22;13193;48.874;9.086;2022-09-23T17:33:24;15.50;1.00
290;DHT22;13193;48.874;9.086;2022-09-23T17:35:50;15.40;1.00
290;DHT22;13193;48.874;9.086;2022-09-23T17:38:16;15.30;1.00
290;DHT22;13193;48.874;9.086;2022-09-23T17:40:48;15.10;1.00
290;DHT22;13193;48.874;9.086;2022-09-23T17:43:14;15.00;1.00
290;DHT22;13193;48.874;9.086;2022-09-23T17:45:41;14.80;1.00
290;DHT22;13193;48.874;9.086;2022-09-23T17:48:07;14.70;1.00
290;DHT22;13193;48.874;9.086;2022-09-23T17:50:32;14.50;1.00
290;DHT22;13193;48.874;9.086;2022-09-23T17:52:58;14.40;1.00
290;DHT22;13193;48.874;9.086;2022-09-23T17:55:26;14.20;1.00
290;DHT22;13193;48.874;9.086;2022-09-23T17:57:52;14.10;1.00
290;DHT22;13193;48.874;9.086;2022-09-23T18:00:17;14.00;1.00
290;DHT22;13193;48.874;9.086;2022-09-23T18:02:43;13.90;1.00
290;DHT22;13193;48.874;9.086;2022-09-23T18:05:09;13.80;1.00
290;DHT22;13193;48.874;9.086;2022-09-23T18:07:34;13.80;1.00
290;DHT22;13193;48.874;9.086;2022-09-23T18:10:00;13.70;1.00
290;DHT22;13193;48.874;9.086;2022-09-23T18:12:25;13.70;1.00
290;DHT22;13193;48.874;9.086;2022-09-23T18:14:51;13.60;1.00
290;DHT22;13193;48.874;9.086;2022-09-23T18:17:17;13.60;1.00
290;DHT22;13193;48.874;9.086;2022-09-23T18:19:43;13.60;1.00
290;DHT22;13193;48.874;9.086;2022-09-23T18:22:13;13.60;1.00
290;DHT22;13193;48.874;9.086;2022-09-23T18:24:39;13.60;1.00
290;DHT22;13193;48.874;9.086;2022-09-23T18:27:06;13.60;1.00
290;DHT22;13193;48.874;9.086;2022-09-23T18:29:33;13.60;1.00
290;DHT22;13193;48.874;9.086;2022-09-23T18:32:00;13.60;1.00
290;DHT22;13193;48.874;9.086;2022-09-23T18:34:26;13.50;1.00
290;DHT22;13193;48.874;9.086;2022-09-23T18:36:52;13.60;1.00
290;DHT22;13193;48.874;9.086;2022-09-23T18:39:20;13.60;1.00
290;DHT22;13193;48.874;9.086;2022-09-23T18:41:46;14.40;1.00
290;DHT22;13193;48.874;9.086;2022-09-23T18:44:14;13.50;1.00
290;DHT22;13193;48.874;9.086;2022-09-23T18:46:40;13.50;1.00
290;DHT22;13193;48.874;9.086;2022-09-23T18:49:07;13.60;1.00
290;DHT22;13193;48.874;9.086;2022-09-23T18:51:56;13.50;1.00
290;DHT22;13193;48.874;9.086;2022-09-23T18:54:24;13.40;1.00
290;DHT22;13193;48.874;9.086;2022-09-23T18:56:50;13.50;1.00
290;DHT22;13193;48.874;9.086;2022-09-23T18:59:18;13.60;1.00
290;DHT22;13193;48.874;9.086;2022-09-23T19:01:46;13.90;1.00
290;DHT22;13193;48.874;9.086;2022-09-23T19:04:16;13.40;1.00
290;DHT22;13193;48.874;9.086;2022-09-23T19:06:42;13.40;1.00
290;DHT22;13193;48.874;9.086;2022-09-23T19:09:08;13.40;1.00
290;DHT22;13193;48.874;9.086;2022-09-23T19:11:34;13.40;1.00
290;DHT22;13193;48.874;9.086;2022-09-23T19:14:02;13.40;1.00
290;DHT22;13193;48.874;9.086;2022-09-23T19:16:29;13.40;1.00